^^

..:: Storico WU ::..




Lo storico viene creato da WUnderground con i dati che la stazione Meteomincio invia al loro server. L' aggiornamento viene fatto ogni 5 minuti circa, tuttavia possono esserci intervalli pił ampi a causa di errori, interruzioni di servizio o problemi nell' invio tramite FTP.


Storico stazione MeteoMincio
Giorno Sommario per Dicembre 06, 2022 Unità:  Inglese    Metrico   Entrambi
Giorno Settimana Mese Anno
  Max: Min: Media:
Temperatura: 42.8 °F 37.4 °F 39.9 °F
Dew Point: 42.8 °F 35.6 °F 38.7 °F
Umidità: 97% 95% 96%
Velocità vento: 9.3mph 0mph 4.3mph
Raffica: 13mph - -
Direzione- - SW
Pressione: 30.1 in 30 in -
Precipitazioni: 0.01 in    
 
 
Tabulato Dati per Dicembre 06, 2022
Ora Temperatura Dew Point Pressione Direzione Velocità vento Raffica Umidità Intensità pioggia (oraria) Info solare Situazione
00:04 42.8 °F 42.8 °F 30 in SSW 4.3 mph 6.8 mph 96% 0 in 0.00 W/m2 unknown
00:09 42.8 °F 42.8 °F 30 in SW 5 mph 6.8 mph 96% 0 in 0.00 W/m2 unknown
00:14 42.8 °F 42.8 °F 30 in WSW 5.6 mph 8.1 mph 96% 0 in 0.00 W/m2 unknown
00:19 42.8 °F 42.8 °F 30 in WSW 5 mph 8.1 mph 96% 0 in 0.00 W/m2 unknown
00:24 42.8 °F 42.8 °F 30 in WSW 4.3 mph 6.2 mph 96% 0 in 0.00 W/m2 unknown
00:29 42.8 °F 42.8 °F 30 in West 5 mph 6.2 mph 96% 0 in 0.00 W/m2 unknown
00:34 42.8 °F 41 °F 30 in WSW 3.7 mph 5 mph 96% 0 in 0.00 W/m2 unknown
00:39 42.8 °F 41 °F 30 in West 3.7 mph 5 mph 96% 0 in 0.00 W/m2 unknown
00:44 42.8 °F 41 °F 30 in West 3.7 mph 5 mph 96% 0 in 0.00 W/m2 unknown
00:49 42.8 °F 41 °F 30 in West 3.7 mph 5 mph 96% 0 in 0.00 W/m2 unknown
00:54 42.8 °F 41 °F 30 in WNW 3.1 mph 5 mph 96% 0 in 0.00 W/m2 unknown
00:59 42.8 °F 41 °F 30 in WNW 5 mph 6.2 mph 96% 0 in 0.00 W/m2 unknown
01:04 42.8 °F 41 °F 30 in WNW 4.3 mph 6.2 mph 96% 0 in 0.00 W/m2 unknown
01:09 42.8 °F 41 °F 30 in WNW 4.3 mph 5 mph 96% 0 in 0.00 W/m2 unknown
01:14 42.8 °F 41 °F 30 in WNW 3.7 mph 5 mph 96% 0 in 0.00 W/m2 unknown
01:19 42.8 °F 41 °F 30 in WNW 4.3 mph 6.2 mph 96% 0 in 0.00 W/m2 unknown
01:24 42.8 °F 41 °F 30 in WNW 4.3 mph 5.6 mph 96% 0 in 0.00 W/m2 unknown
01:29 42.8 °F 41 °F 30 in WNW 3.7 mph 6.2 mph 96% 0 in 0.00 W/m2 unknown
01:34 42.8 °F 41 °F 30 in WNW 5 mph 6.2 mph 96% 0 in 0.00 W/m2 unknown
01:39 42.8 °F 41 °F 30 in WNW 6.8 mph 11.2 mph 96% 0 in 0.00 W/m2 unknown
01:44 42.8 °F 41 °F 30 in NW 7.5 mph 11.8 mph 96% 0 in 0.00 W/m2 unknown
01:49 42.8 °F 41 °F 30 in WNW 7.5 mph 11.8 mph 96% 0 in 0.00 W/m2 unknown
01:54 42.8 °F 41 °F 30 in WNW 7.5 mph 9.9 mph 96% 0 in 0.00 W/m2 unknown
01:59 42.8 °F 41 °F 30 in WNW 7.5 mph 10.6 mph 96% 0 in 0.00 W/m2 unknown
02:04 42.8 °F 41 °F 30 in West 7.5 mph 10.6 mph 96% 0 in 0.00 W/m2 unknown
02:09 42.8 °F 41 °F 30 in WNW 8.7 mph 11.8 mph 96% 0 in 0.00 W/m2 unknown
02:14 42.8 °F 41 °F 30 in WNW 8.7 mph 11.8 mph 96% 0 in 0.00 W/m2 unknown
02:19 42.8 °F 41 °F 30 in West 8.1 mph 11.8 mph 96% 0 in 0.00 W/m2 unknown
02:24 42.8 °F 41 °F 30 in West 6.8 mph 9.3 mph 96% 0 in 0.00 W/m2 unknown
02:29 42.8 °F 41 °F 30 in West 8.1 mph 11.8 mph 96% 0 in 0.00 W/m2 unknown
02:34 42.8 °F 41 °F 30 in West 6.8 mph 11.8 mph 96% 0 in 0.00 W/m2 unknown
02:39 42.8 °F 41 °F 30 in West 8.1 mph 10.6 mph 96% 0 in 0.00 W/m2 unknown
02:44 42.8 °F 41 °F 30 in West 6.2 mph 9.9 mph 96% 0 in 0.00 W/m2 unknown
02:49 42.8 °F 41 °F 30 in West 6.8 mph 8.1 mph 96% 0 in 0.00 W/m2 unknown
02:54 42.8 °F 41 °F 30 in West 5.6 mph 8.1 mph 96% 0 in 0.00 W/m2 unknown
02:59 42.8 °F 41 °F 30 in WNW 5.6 mph 8.1 mph 96% 0 in 0.00 W/m2 unknown
03:04 42.8 °F 41 °F 30 in WNW 6.2 mph 9.3 mph 96% 0 in 0.00 W/m2 unknown
03:09 42.8 °F 41 °F 30 in WNW 6.2 mph 8.7 mph 96% 0 in 0.00 W/m2 unknown
03:14 42.8 °F 41 °F 30 in West 5 mph 8.1 mph 96% 0 in 0.00 W/m2 unknown
03:19 42.8 °F 41 °F 30 in WNW 5 mph 6.8 mph 96% 0 in 0.00 W/m2 unknown
03:24 42.8 °F 41 °F 30 in WNW 5 mph 6.8 mph 96% 0 in 0.00 W/m2 unknown
03:29 42.8 °F 41 °F 30 in WNW 5 mph 6.8 mph 96% 0 in 0.00 W/m2 unknown
03:34 42.8 °F 41 °F 30 in WNW 6.2 mph 8.1 mph 96% 0 in 0.00 W/m2 unknown
03:39 42.8 °F 41 °F 30 in WNW 6.2 mph 8.1 mph 96% 0 in 0.00 W/m2 unknown
03:44 42.8 °F 41 °F 30 in NW 5 mph 8.1 mph 96% 0 in 0.00 W/m2 unknown
03:49 41 °F 41 °F 30 in WNW 5 mph 8.1 mph 96% 0 in 0.00 W/m2 unknown
03:54 41 °F 41 °F 30 in WNW 5.6 mph 8.1 mph 96% 0 in 0.00 W/m2 unknown
03:59 41 °F 41 °F 30 in WNW 6.2 mph 8.1 mph 96% 0 in 0.00 W/m2 unknown
04:04 41 °F 41 °F 30 in WNW 5.6 mph 6.8 mph 96% 0 in 0.00 W/m2 unknown
04:09 41 °F 41 °F 30 in WNW 6.2 mph 6.8 mph 96% 0 in 0.00 W/m2 unknown
04:14 41 °F 41 °F 30 in WNW 5.6 mph 6.8 mph 96% 0 in 0.00 W/m2 unknown
04:19 41 °F 41 °F 30 in WNW 5 mph 6.8 mph 96% 0 in 0.00 W/m2 unknown
04:24 41 °F 41 °F 30 in West 3.7 mph 5 mph 96% 0 in 0.00 W/m2 unknown
04:29 41 °F 39.2 °F 30 in WNW 3.1 mph 5 mph 96% 0 in 0.00 W/m2 unknown
04:34 41 °F 39.2 °F 30 in West 3.1 mph 3.7 mph 96% 0 in 0.00 W/m2 unknown
04:39 41 °F 39.2 °F 30 in WSW 5 mph 8.1 mph 96% 0 in 0.00 W/m2 unknown
04:44 41 °F 39.2 °F 30 in WSW 5.6 mph 8.1 mph 96% 0 in 0.00 W/m2 unknown
04:49 39.2 °F 39.2 °F 30 in WSW 5 mph 8.1 mph 96% 0 in 0.00 W/m2 unknown
04:54 39.2 °F 39.2 °F 30 in WSW 4.3 mph 6.2 mph 96% 0 in 0.00 W/m2 unknown
04:59 39.2 °F 39.2 °F 30 in WSW 5.6 mph 8.1 mph 96% 0 in 0.00 W/m2 unknown
05:04 39.2 °F 37.4 °F 30 in West 6.2 mph 8.1 mph 96% 0 in 0.00 W/m2 unknown
05:09 39.2 °F 37.4 °F 30 in West 5 mph 6.8 mph 96% 0 in 0.00 W/m2 unknown
05:14 39.2 °F 37.4 °F 30 in West 5.6 mph 6.8 mph 96% 0 in 0.00 W/m2 unknown
05:19 39.2 °F 37.4 °F 30 in West 5 mph 6.8 mph 96% 0 in 0.00 W/m2 unknown
05:24 39.2 °F 37.4 °F 30 in West 7.5 mph 10.6 mph 96% 0.01 in 0.00 W/m2 unknown
05:29 39.2 °F 37.4 °F 30 in West 6.2 mph 9.9 mph 96% 0.01 in 0.00 W/m2 unknown
05:34 39.2 °F 37.4 °F 30 in West 8.1 mph 10.6 mph 96% 0.01 in 0.00 W/m2 unknown
05:39 39.2 °F 37.4 °F 30 in West 8.1 mph 10.6 mph 96% 0.01 in 0.00 W/m2 unknown
05:44 39.2 °F 37.4 °F 30 in West 6.8 mph 8.1 mph 96% 0.01 in 0.00 W/m2 unknown
05:49 39.2 °F 37.4 °F 30 in WSW 5.6 mph 8.1 mph 96% 0.01 in 0.00 W/m2 unknown
05:54 39.2 °F 37.4 °F 30 in WSW 5 mph 8.1 mph 96% 0.01 in 0.00 W/m2 unknown
05:59 39.2 °F 37.4 °F 30 in West 5.6 mph 8.1 mph 96% 0.01 in 0.00 W/m2 unknown
06:04 39.2 °F 37.4 °F 30 in West 5.6 mph 8.1 mph 96% 0.01 in 0.00 W/m2 unknown
06:09 37.4 °F 37.4 °F 30 in West 5.6 mph 8.1 mph 96% 0.01 in 0.00 W/m2 unknown
06:14 37.4 °F 37.4 °F 30 in West 8.1 mph 11.2 mph 96% 0.01 in 0.00 W/m2 unknown
06:19 37.4 °F 37.4 °F 30 in West 8.7 mph 11.8 mph 96% 0.01 in 0.00 W/m2 unknown
06:24 37.4 °F 37.4 °F 30 in West 6.8 mph 11.8 mph 96% 0.01 in 0.00 W/m2 unknown
06:29 37.4 °F 37.4 °F 30 in West 6.8 mph 8.1 mph 96% 0.01 in 0.00 W/m2 unknown
06:34 37.4 °F 37.4 °F 30 in West 5.6 mph 8.1 mph 96% 0 in 0.00 W/m2 unknown
06:39 37.4 °F 37.4 °F 30 in West 7.5 mph 10.6 mph 96% 0 in 0.00 W/m2 unknown
06:44 37.4 °F 37.4 °F 30 in West 6.8 mph 9.9 mph 96% 0 in 0.00 W/m2 unknown
06:49 37.4 °F 37.4 °F 30 in WSW 7.5 mph 9.3 mph 96% 0 in 0.00 W/m2 unknown
06:54 37.4 °F 37.4 °F 30 in WSW 6.8 mph 9.9 mph 96% 0 in 0.00 W/m2 unknown
06:59 37.4 °F 37.4 °F 30 in West 8.1 mph 10.6 mph 96% 0 in 0.00 W/m2 unknown
07:04 37.4 °F 37.4 °F 30 in West 8.7 mph 11.8 mph 96% 0 in 0.00 W/m2 unknown
07:09 37.4 °F 37.4 °F 30 in West 7.5 mph 11.8 mph 96% 0 in 0.00 W/m2 unknown
07:14 37.4 °F 37.4 °F 30 in WSW 6.2 mph 9.3 mph 96% 0 in 0.00 W/m2 unknown
07:19 37.4 °F 37.4 °F 30 in West 8.7 mph 11.8 mph 96% 0 in 0.00 W/m2 unknown
07:24 37.4 °F 37.4 °F 30 in WSW 8.1 mph 11.8 mph 96% 0 in 0.00 W/m2 unknown
07:29 37.4 °F 37.4 °F 30 in WSW 8.7 mph 11.8 mph 96% 0 in 0.00 W/m2 unknown
07:34 37.4 °F 37.4 °F 30 in WSW 8.7 mph 11.8 mph 96% 0 in 0.00 W/m2 unknown
07:39 37.4 °F 37.4 °F 30 in WSW 8.7 mph 11.8 mph 96% 0 in 0.00 W/m2 unknown
07:44 37.4 °F 35.6 °F 30 in WSW 8.7 mph 13 mph 96% 0 in 0.00 W/m2 unknown
07:49 37.4 °F 35.6 °F 30 in WSW 9.3 mph 13 mph 96% 0 in 0.00 W/m2 unknown
07:54 37.4 °F 35.6 °F 30 in WSW 8.7 mph 11.8 mph 96% 0 in 5.00 W/m2 unknown
07:59 37.4 °F 35.6 °F 30 in WSW 7.5 mph 11.8 mph 96% 0 in 9.00 W/m2 unknown
08:04 37.4 °F 35.6 °F 30 in WSW 6.8 mph 9.9 mph 96% 0 in 11.00 W/m2 unknown
08:09 37.4 °F 35.6 °F 30 in West 7.5 mph 11.8 mph 96% 0 in 16.00 W/m2 unknown
08:14 37.4 °F 35.6 °F 30 in WSW 7.5 mph 11.8 mph 96% 0 in 18.00 W/m2 unknown
08:19 37.4 °F 35.6 °F 30 in WSW 8.1 mph 11.8 mph 96% 0 in 21.00 W/m2 unknown
08:24 37.4 °F 35.6 °F 30 in WSW 7.5 mph 11.8 mph 96% 0 in 25.00 W/m2 unknown
08:29 37.4 °F 35.6 °F 30 in WSW 7.5 mph 10.6 mph 96% 0 in 28.00 W/m2 unknown
08:34 37.4 °F 37.4 °F 30 in West 7.5 mph 9.9 mph 97% 0 in 35.00 W/m2 unknown
08:39 37.4 °F 37.4 °F 30 in WSW 5.6 mph 8.7 mph 97% 0 in 44.00 W/m2 unknown
08:44 37.4 °F 37.4 °F 30 in WSW 5.6 mph 8.1 mph 97% 0 in 47.00 W/m2 unknown
08:49 37.4 °F 37.4 °F 30 in WSW 6.2 mph 10.6 mph 97% 0 in 28.00 W/m2 unknown
08:54 37.4 °F 37.4 °F 30 in West 6.8 mph 10.6 mph 97% 0 in 39.00 W/m2 unknown
08:59 37.4 °F 37.4 °F 30 in West 6.8 mph 9.9 mph 97% 0 in 42.00 W/m2 unknown
09:04 37.4 °F 37.4 °F 30 in WSW 5 mph 8.7 mph 97% 0 in 54.00 W/m2 unknown
09:09 37.4 °F 37.4 °F 30 in WSW 5.6 mph 8.1 mph 97% 0 in 77.00 W/m2 unknown
09:14 37.4 °F 37.4 °F 30 in West 5.6 mph 8.1 mph 97% 0 in 74.00 W/m2 unknown
09:19 37.4 °F 37.4 °F 30 in West 6.2 mph 8.1 mph 96% 0 in 86.00 W/m2 unknown
09:24 37.4 °F 37.4 °F 30 in WNW 5 mph 6.8 mph 97% 0 in 81.00 W/m2 unknown
09:29 37.4 °F 37.4 °F 30 in West 5.6 mph 8.1 mph 97% 0 in 84.00 W/m2 unknown
09:34 37.4 °F 37.4 °F 30 in WNW 5 mph 8.1 mph 97% 0 in 84.00 W/m2 unknown
09:39 37.4 °F 37.4 °F 30 in WNW 5 mph 6.8 mph 96% 0 in 88.00 W/m2 unknown
09:44 37.4 °F 37.4 °F 30 in WNW 5.6 mph 6.8 mph 96% 0 in 88.00 W/m2 unknown
09:49 37.4 °F 37.4 °F 30 in WNW 4.3 mph 6.8 mph 97% 0 in 86.00 W/m2 unknown
09:54 37.4 °F 37.4 °F 30 in WNW 5 mph 6.8 mph 97% 0 in 90.00 W/m2 unknown
09:59 37.4 °F 37.4 °F 30 in West 5.6 mph 6.8 mph 97% 0 in 93.00 W/m2 unknown
10:04 37.4 °F 37.4 °F 30 in West 6.2 mph 6.8 mph 97% 0 in 88.00 W/m2 unknown
10:09 39.2 °F 37.4 °F 30 in WNW 6.2 mph 8.1 mph 97% 0 in 84.00 W/m2 unknown
10:14 39.2 °F 37.4 °F 30.1 in West 6.2 mph 8.1 mph 97% 0 in 109.00 W/m2 unknown
10:19 39.2 °F 37.4 °F 30.1 in WNW 6.2 mph 8.1 mph 97% 0 in 125.00 W/m2 unknown
10:24 39.2 °F 37.4 °F 30.1 in WNW 5.6 mph 8.1 mph 97% 0 in 76.00 W/m2 unknown
10:29 39.2 °F 37.4 °F 30.1 in West 6.2 mph 6.8 mph 97% 0 in 79.00 W/m2 unknown
10:34 39.2 °F 37.4 °F 30.1 in WNW 5 mph 6.8 mph 97% 0 in 65.00 W/m2 unknown
10:39 39.2 °F 37.4 °F 30.1 in NW 5 mph 6.8 mph 97% 0 in 74.00 W/m2 unknown
10:44 39.2 °F 37.4 °F 30.1 in NW 5 mph 6.8 mph 97% 0 in 72.00 W/m2 unknown
10:49 39.2 °F 39.2 °F 30.1 in NW 5 mph 6.8 mph 97% 0 in 81.00 W/m2 unknown
10:54 39.2 °F 39.2 °F 30.1 in WNW 5 mph 6.8 mph 97% 0 in 104.00 W/m2 unknown
10:59 39.2 °F 39.2 °F 30.1 in West 5.6 mph 6.8 mph 97% 0 in 98.00 W/m2 unknown
11:04 39.2 °F 39.2 °F 30.1 in WNW 6.2 mph 6.8 mph 97% 0 in 95.00 W/m2 unknown
11:09 39.2 °F 39.2 °F 30.1 in West 5.6 mph 6.8 mph 97% 0 in 116.00 W/m2 unknown
11:14 39.2 °F 39.2 °F 30 in WNW 5.6 mph 8.1 mph 97% 0 in 135.00 W/m2 unknown
11:19 39.2 °F 37.4 °F 30 in WNW 6.2 mph 8.1 mph 97% 0 in 123.00 W/m2 unknown
11:24 39.2 °F 39.2 °F 30 in NW 5 mph 8.1 mph 97% 0 in 116.00 W/m2 unknown
11:29 39.2 °F 39.2 °F 30 in WNW 5.6 mph 6.8 mph 97% 0 in 151.00 W/m2 unknown
11:34 39.2 °F 39.2 °F 30 in West 5.6 mph 8.1 mph 97% 0 in 151.00 W/m2 unknown
11:39 39.2 °F 39.2 °F 30 in NW 5 mph 8.1 mph 97% 0 in 105.00 W/m2 unknown
11:44 39.2 °F 39.2 °F 30 in NNW 5 mph 6.8 mph 97% 0 in 88.00 W/m2 unknown
11:49 39.2 °F 39.2 °F 30 in NNW 5 mph 6.8 mph 97% 0 in 95.00 W/m2 unknown
11:54 39.2 °F 39.2 °F 30 in NNW 3.7 mph 6.8 mph 97% 0 in 97.00 W/m2 unknown
11:59 39.2 °F 39.2 °F 30 in NW 3.7 mph 5 mph 97% 0 in 98.00 W/m2 unknown
12:04 39.2 °F 39.2 °F 30 in West 3.1 mph 5 mph 97% 0 in 86.00 W/m2 unknown
12:09 39.2 °F 39.2 °F 30 in NW 4.3 mph 6.2 mph 97% 0 in 104.00 W/m2 unknown
12:14 39.2 °F 39.2 °F 30 in NNW 3.1 mph 6.2 mph 97% 0 in 91.00 W/m2 unknown
12:19 39.2 °F 39.2 °F 30 in NW 3.7 mph 5 mph 97% 0 in 98.00 W/m2 unknown
12:24 39.2 °F 39.2 °F 30 in WNW 5 mph 8.7 mph 97% 0 in 114.00 W/m2 unknown
12:29 39.2 °F 39.2 °F 30 in NW 5 mph 9.3 mph 97% 0 in 139.00 W/m2 unknown
12:34 41 °F 39.2 °F 30 in NNW 5.6 mph 8.7 mph 97% 0 in 130.00 W/m2 unknown
12:39 41 °F 39.2 °F 30 in NNW 5 mph 6.8 mph 97% 0 in 120.00 W/m2 unknown
12:44 41 °F 39.2 °F 30 in NW 3.7 mph 6.8 mph 97% 0 in 135.00 W/m2 unknown
12:49 41 °F 39.2 °F 30 in NNW 3.1 mph 6.8 mph 97% 0 in 135.00 W/m2 unknown
12:54 41 °F 39.2 °F 30 in NNW 1.9 mph 3.7 mph 97% 0 in 98.00 W/m2 unknown
12:59 41 °F 41 °F 30 in North 3.7 mph 3.7 mph 97% 0 in 123.00 W/m2 unknown
13:04 41 °F 41 °F 30 in North 3.7 mph 5 mph 97% 0 in 139.00 W/m2 unknown
13:09 41 °F 41 °F 30 in North 4.3 mph 5 mph 97% 0 in 109.00 W/m2 unknown
13:14 41 °F 41 °F 30 in North 3.7 mph 5 mph 97% 0 in 107.00 W/m2 unknown
13:19 41 °F 41 °F 30 in NNE 4.3 mph 6.8 mph 97% 0 in 137.00 W/m2 unknown
13:24 41 °F 41 °F 30 in NNW 5 mph 6.8 mph 97% 0 in 176.00 W/m2 unknown
13:29 41 °F 39.2 °F 30 in North 5 mph 6.2 mph 96% 0 in 148.00 W/m2 unknown
13:34 41 °F 39.2 °F 30 in NNE 4.3 mph 6.2 mph 96% 0 in 127.00 W/m2 unknown
13:39 41 °F 39.2 °F 30 in NE 4.3 mph 5 mph 96% 0 in 118.00 W/m2 unknown
13:44 41 °F 39.2 °F 30 in NNE 3.1 mph 3.7 mph 96% 0 in 114.00 W/m2 unknown
13:49 41 °F 39.2 °F 30 in NNE 4.3 mph 6.2 mph 96% 0 in 91.00 W/m2 unknown
13:54 41 °F 39.2 °F 30 in NE 5 mph 6.8 mph 96% 0 in 88.00 W/m2 unknown
13:59 41 °F 39.2 °F 30 in NE 4.3 mph 6.2 mph 96% 0 in 93.00 W/m2 unknown
14:04 41 °F 39.2 °F 30 in ENE 5 mph 6.2 mph 96% 0 in 97.00 W/m2 unknown
14:09 41 °F 39.2 °F 30 in NE 3.7 mph 6.2 mph 96% 0 in 86.00 W/m2 unknown
14:14 41 °F 39.2 °F 30 in North 3.7 mph 6.2 mph 96% 0 in 93.00 W/m2 unknown
14:19 41 °F 39.2 °F 30 in NE 3.1 mph 3.7 mph 96% 0 in 90.00 W/m2 unknown
14:24 41 °F 39.2 °F 30 in East 2.5 mph 5 mph 96% 0 in 88.00 W/m2 unknown
14:29 41 °F 39.2 °F 30 in East 1.9 mph 5 mph 96% 0 in 81.00 W/m2 unknown
14:34 41 °F 39.2 °F 30 in ENE 3.1 mph 5 mph 96% 0 in 69.00 W/m2 unknown
14:39 41 °F 39.2 °F 30 in NE 3.1 mph 5 mph 96% 0 in 70.00 W/m2 unknown
14:44 41 °F 39.2 °F 30 in NNE 1.2 mph 3.7 mph 96% 0 in 76.00 W/m2 unknown
14:49 41 °F 39.2 °F 30 in North 2.5 mph 3.7 mph 96% 0 in 72.00 W/m2 unknown
14:54 41 °F 39.2 °F 30 in North 2.5 mph 3.7 mph 96% 0 in 67.00 W/m2 unknown
14:59 41 °F 39.2 °F 30 in ENE 3.1 mph 5 mph 96% 0 in 53.00 W/m2 unknown
15:04 41 °F 39.2 °F 30 in East 3.7 mph 5 mph 96% 0 in 58.00 W/m2 unknown
15:09 41 °F 39.2 °F 30 in East 3.7 mph 5 mph 96% 0 in 58.00 W/m2 unknown
15:14 41 °F 39.2 °F 30 in ESE 3.1 mph 5 mph 96% 0 in 63.00 W/m2 unknown
15:19 41 °F 39.2 °F 30 in ESE 3.1 mph 5 mph 96% 0 in 76.00 W/m2 unknown
15:24 41 °F 39.2 °F 30 in ESE 2.5 mph 3.7 mph 96% 0 in 79.00 W/m2 unknown
15:29 41 °F 39.2 °F 30 in NE 1.9 mph 3.1 mph 96% 0 in 81.00 W/m2 unknown
15:34 41 °F 39.2 °F 30 in NNE 3.1 mph 3.7 mph 96% 0 in 74.00 W/m2 unknown
15:39 41 °F 39.2 °F 30 in NE 2.5 mph 3.7 mph 96% 0 in 47.00 W/m2 unknown
15:44 41 °F 39.2 °F 30 in ENE 2.5 mph 3.7 mph 96% 0 in 30.00 W/m2 unknown
15:49 41 °F 39.2 °F 30 in Calm     96% 0 in 25.00 W/m2 unknown
15:54 41 °F 39.2 °F 30 in NE 1.9 mph 3.1 mph 96% 0 in 25.00 W/m2 unknown
15:59 41 °F 39.2 °F 30 in NE 1.9 mph 3.7 mph 96% 0 in 21.00 W/m2 unknown
16:04 41 °F 39.2 °F 30 in NE 1.9 mph 3.7 mph 96% 0 in 12.00 W/m2 unknown
16:09 41 °F 39.2 °F 30 in North 1.9 mph 3.7 mph 96% 0 in 12.00 W/m2 unknown
16:14 41 °F 39.2 °F 30 in North 1.2 mph 3.1 mph 96% 0 in 11.00 W/m2 unknown
16:19 41 °F 39.2 °F 30 in North 1.9 mph 3.7 mph 96% 0 in 9.00 W/m2 unknown
16:24 41 °F 39.2 °F 30 in NNE 1.9 mph 3.1 mph 96% 0 in 7.00 W/m2 unknown
16:29 41 °F 39.2 °F 30 in NNE 2.5 mph 3.7 mph 96% 0 in 0.00 W/m2 unknown
16:34 41 °F 39.2 °F 30 in North 2.5 mph 3.7 mph 96% 0 in 0.00 W/m2 unknown
16:39 41 °F 39.2 °F 30 in NNE 1.9 mph 3.1 mph 96% 0 in 0.00 W/m2 unknown
16:44 41 °F 39.2 °F 30 in NE 1.2 mph 3.1 mph 96% 0 in 0.00 W/m2 unknown
16:49 41 °F 39.2 °F 30 in NNE 2.5 mph 3.7 mph 96% 0 in 0.00 W/m2 unknown
16:54 41 °F 39.2 °F 30 in NNE 1.9 mph 3.7 mph 96% 0 in 0.00 W/m2 unknown
16:59 41 °F 39.2 °F 30 in North 1.9 mph 3.7 mph 96% 0 in 0.00 W/m2 unknown
17:04 41 °F 39.2 °F 30 in NE 1.2 mph 3.1 mph 96% 0 in 0.00 W/m2 unknown
17:09 41 °F 39.2 °F 30 in NE 1.2 mph 2.5 mph 95% 0 in 0.00 W/m2 unknown
17:14 39.2 °F 39.2 °F 30 in NE 0.6 mph 1.9 mph 96% 0 in 0.00 W/m2 unknown
17:19 39.2 °F 39.2 °F 30 in NE 1.9 mph 2.5 mph 96% 0 in 0.00 W/m2 unknown
17:24 39.2 °F 39.2 °F 30 in East 1.2 mph 2.5 mph 96% 0 in 0.00 W/m2 unknown
17:29 39.2 °F 39.2 °F 30 in East 1.2 mph 2.5 mph 96% 0 in 0.00 W/m2 unknown
17:34 39.2 °F 39.2 °F 30 in ENE 1.2 mph 2.5 mph 96% 0 in 0.00 W/m2 unknown
17:39 39.2 °F 39.2 °F 30 in ENE 3.1 mph 3.7 mph 96% 0 in 0.00 W/m2 unknown
17:44 39.2 °F 39.2 °F 30 in NE 3.1 mph 3.7 mph 96% 0 in 0.00 W/m2 unknown
17:49 39.2 °F 39.2 °F 30 in NNW 2.5 mph 3.7 mph 96% 0 in 0.00 W/m2 unknown
17:54 39.2 °F 39.2 °F 30 in NE 1.2 mph 3.1 mph 96% 0 in 0.00 W/m2 unknown
17:59 39.2 °F 39.2 °F 30 in East 2.5 mph 3.7 mph 96% 0 in 0.00 W/m2 unknown
18:04 39.2 °F 39.2 °F 30 in NNE 3.7 mph 3.7 mph 96% 0 in 0.00 W/m2 unknown
18:09 39.2 °F 39.2 °F 30 in North 2.5 mph 3.7 mph 96% 0 in 0.00 W/m2 unknown
18:14 39.2 °F 39.2 °F 30 in NE 2.5 mph 3.7 mph 96% 0 in 0.00 W/m2 unknown
18:19 39.2 °F 39.2 °F 30 in East 2.5 mph 3.7 mph 96% 0 in 0.00 W/m2 unknown
18:24 39.2 °F 39.2 °F 30 in NE 2.5 mph 3.7 mph 96% 0 in 0.00 W/m2 unknown
18:29 39.2 °F 39.2 °F 30 in NE 1.2 mph 3.1 mph 96% 0 in 0.00 W/m2 unknown
18:34 39.2 °F 39.2 °F 30 in East 1.9 mph 3.1 mph 96% 0 in 0.00 W/m2 unknown
18:39 39.2 °F 39.2 °F 30 in ESE 2.5 mph 3.7 mph 96% 0 in 0.00 W/m2 unknown
18:44 39.2 °F 39.2 °F 30 in East 3.1 mph 3.7 mph 96% 0 in 0.00 W/m2 unknown
18:49 39.2 °F 39.2 °F 30 in East 2.5 mph 3.7 mph 96% 0 in 0.00 W/m2 unknown
18:54 39.2 °F 37.4 °F 30 in East 1.9 mph 3.1 mph 96% 0 in 0.00 W/m2 unknown
18:59 39.2 °F 37.4 °F 30 in ENE 3.1 mph 3.7 mph 96% 0 in 0.00 W/m2 unknown
19:04 39.2 °F 37.4 °F 30 in NE 1.9 mph 3.7 mph 96% 0 in 0.00 W/m2 unknown
19:09 39.2 °F 37.4 °F 30 in NE 1.2 mph 3.1 mph 96% 0 in 0.00 W/m2 unknown
19:14 39.2 °F 37.4 °F 30 in NE 2.5 mph 3.7 mph 96% 0 in 0.00 W/m2 unknown
19:19 39.2 °F 37.4 °F 30 in NE 1.2 mph 3.7 mph 96% 0 in 0.00 W/m2 unknown
19:24 39.2 °F 37.4 °F 30 in East 1.2 mph 2.5 mph 96% 0 in 0.00 W/m2 unknown
19:29 39.2 °F 37.4 °F 30 in East 1.2 mph 2.5 mph 96% 0 in 0.00 W/m2 unknown
19:34 39.2 °F 37.4 °F 30 in East 1.2 mph 2.5 mph 96% 0 in 0.00 W/m2 unknown
19:39 39.2 °F 37.4 °F 30 in SE 1.2 mph 2.5 mph 96% 0 in 0.00 W/m2 unknown
19:44 39.2 °F 37.4 °F 30 in SSE 1.9 mph 2.5 mph 96% 0 in 0.00 W/m2 unknown
19:49 39.2 °F 37.4 °F 30 in SE 2.5 mph 3.7 mph 96% 0 in 0.00 W/m2 unknown
19:54 39.2 °F 37.4 °F 30 in SE 1.2 mph 3.1 mph 96% 0 in 0.00 W/m2 unknown
19:59 39.2 °F 37.4 °F 30 in Calm   1.9 mph 96% 0 in 0.00 W/m2 unknown
20:04 39.2 °F 37.4 °F 30 in Calm   1.2 mph 96% 0 in 0.00 W/m2 unknown
20:09 39.2 °F 37.4 °F 30 in SE 1.2 mph 1.2 mph 96% 0 in 0.00 W/m2 unknown
20:14 39.2 °F 37.4 °F 30 in South 1.9 mph 3.1 mph 96% 0 in 0.00 W/m2 unknown
20:19 39.2 °F 37.4 °F 30 in SW 2.5 mph 3.7 mph 96% 0 in 0.00 W/m2 unknown
20:24 39.2 °F 37.4 °F 30 in SW 2.5 mph 3.7 mph 96% 0 in 0.00 W/m2 unknown
20:29 39.2 °F 37.4 °F 30 in SW 1.9 mph 3.7 mph 96% 0 in 0.00 W/m2 unknown
20:34 39.2 °F 37.4 °F 30 in Calm   3.1 mph 96% 0 in 0.00 W/m2 unknown
20:39 39.2 °F 37.4 °F 30 in Calm   1.2 mph 96% 0 in 0.00 W/m2 unknown
20:44 39.2 °F 37.4 °F 30 in SW 1.2 mph 2.5 mph 96% 0 in 0.00 W/m2 unknown
20:49 39.2 °F 37.4 °F 30 in WNW 2.5 mph 3.7 mph 96% 0 in 0.00 W/m2 unknown
20:54 39.2 °F 37.4 °F 30 in WNW 1.9 mph 3.7 mph 96% 0 in 0.00 W/m2 unknown
20:59 39.2 °F 37.4 °F 30 in WNW 0.6 mph 3.1 mph 96% 0 in 0.00 W/m2 unknown
21:04 39.2 °F 37.4 °F 30 in WNW 1.2 mph 2.5 mph 96% 0 in 0.00 W/m2 unknown
21:09 39.2 °F 37.4 °F 30 in WNW 2.5 mph 3.7 mph 96% 0 in 0.00 W/m2 unknown
21:14 39.2 °F 37.4 °F 30 in WNW 3.1 mph 3.7 mph 96% 0 in 0.00 W/m2 unknown
21:19 39.2 °F 37.4 °F 30 in WNW 3.1 mph 3.7 mph 96% 0 in 0.00 W/m2 unknown
21:24 39.2 °F 37.4 °F 30 in WNW 2.5 mph 3.7 mph 96% 0 in 0.00 W/m2 unknown
21:29 39.2 °F 37.4 °F 30 in WNW 1.9 mph 3.7 mph 96% 0 in 0.00 W/m2 unknown
21:34 39.2 °F 37.4 °F 30 in SW 1.9 mph 3.7 mph 96% 0 in 0.00 W/m2 unknown
21:39 39.2 °F 37.4 °F 30 in West 1.9 mph 3.7 mph 96% 0 in 0.00 W/m2 unknown
21:44 39.2 °F 37.4 °F 30 in West 1.2 mph 3.1 mph 96% 0 in 0.00 W/m2 unknown
21:49 39.2 °F 37.4 °F 30 in SW 2.5 mph 3.7 mph 96% 0 in 0.00 W/m2 unknown
21:54 39.2 °F 37.4 °F 30 in WSW 2.5 mph 3.7 mph 96% 0 in 0.00 W/m2 unknown
21:59 39.2 °F 37.4 °F 30 in SW 3.1 mph 3.7 mph 96% 0 in 0.00 W/m2 unknown
22:04 39.2 °F 37.4 °F 30 in WSW 3.1 mph 3.7 mph 96% 0 in 0.00 W/m2 unknown
22:09 39.2 °F 37.4 °F 30 in SW 2.5 mph 3.7 mph 96% 0 in 0.00 W/m2 unknown
22:14 39.2 °F 37.4 °F 30 in SSW 3.7 mph 5 mph 96% 0 in 0.00 W/m2 unknown
22:19 39.2 °F 37.4 °F 30 in SSW 3.1 mph 5 mph 96% 0 in 0.00 W/m2 unknown
22:24 39.2 °F 37.4 °F 30 in SSW 3.1 mph 3.7 mph 96% 0 in 0.00 W/m2 unknown
22:29 39.2 °F 37.4 °F 30 in SSW 3.1 mph 3.7 mph 96% 0 in 0.00 W/m2 unknown
22:34 39.2 °F 37.4 °F 30 in SSW 3.7 mph 5 mph 96% 0 in 0.00 W/m2 unknown
22:39 39.2 °F 37.4 °F 30 in SSW 3.7 mph 5 mph 96% 0 in 0.00 W/m2 unknown
22:44 39.2 °F 37.4 °F 30 in SSW 4.3 mph 5 mph 96% 0 in 0.00 W/m2 unknown
22:49 39.2 °F 37.4 °F 30 in SW 3.7 mph 5 mph 96% 0 in 0.00 W/m2 unknown
22:54 39.2 °F 37.4 °F 30 in SW 2.5 mph 5 mph 96% 0 in 0.00 W/m2 unknown
22:59 39.2 °F 37.4 °F 30 in SW 1.9 mph 3.7 mph 96% 0 in 0.00 W/m2 unknown
23:04 39.2 °F 37.4 °F 30 in SW 1.9 mph 3.7 mph 96% 0 in 0.00 W/m2 unknown
23:09 39.2 °F 37.4 °F 30 in WSW 1.2 mph 3.1 mph 96% 0 in 0.00 W/m2 unknown
23:14 39.2 °F 37.4 °F 30 in WNW 1.9 mph 3.7 mph 96% 0 in 0.00 W/m2 unknown
23:19 39.2 °F 37.4 °F 30 in WNW 2.5 mph 3.7 mph 96% 0 in 0.00 W/m2 unknown
23:24 39.2 °F 37.4 °F 30 in WNW 3.1 mph 3.7 mph 96% 0 in 0.00 W/m2 unknown
23:29 39.2 °F 37.4 °F 30 in WNW 3.1 mph 3.7 mph 96% 0 in 0.00 W/m2 unknown
23:34 39.2 °F 37.4 °F 30 in WNW 1.9 mph 3.7 mph 96% 0 in 0.00 W/m2 unknown
23:39 39.2 °F 37.4 °F 30 in WNW 3.1 mph 3.7 mph 96% 0 in 0.00 W/m2 unknown
23:44 39.2 °F 37.4 °F 30 in West 3.1 mph 3.7 mph 96% 0 in 0.00 W/m2 unknown
23:49 39.2 °F 37.4 °F 30 in WSW 3.7 mph 3.7 mph 96% 0 in 0.00 W/m2 unknown
23:54 39.2 °F 37.4 °F 30 in WNW 3.1 mph 5 mph 96% 0 in 0.00 W/m2 unknown
23:59 39.2 °F 37.4 °F 30 in WNW 3.1 mph 5 mph 96% 0 in 0.00 W/m2 unknown
Stazione Meteorologica MeteoMincio Rivalta s/M (MN)
Con i complimenti di Weather Underground - 4 mb



METEO PILLOLE
Il luogo più umido della Terra
Assab, Eritrea
Di pomeriggio, la temperatura di rugiada è in media sopra i 29°C.
Share

Non seguire questo link o sarai bannato dal sito!